Flight Track Log - Related Links

Times and Time Zones

All times are in EDT time to prevent confusion due to time zone crossing. See the RPA3242 flight status page for this flight to view local times or setup timezone preferences in your user account.

Time Position Orientation Groundspeed Altitude Reporting Facility
EDT Latitude Longitude Course Direction KTS MPH feet Rate Location/Type
Fri 06:23:18 PM 42.2356 -83.3289 90° East 147 169 1,600  Level Cleveland Center
Fri 06:24:20 PM 42.2681 -83.2825 47° Northeast 215 247 3,300 2,081 Climbing Cleveland Center
Fri 06:25:00 PM 42.2167 -82.9354 90° East  Level FlightAware Approximate
Fri 06:25:22 PM 42.3053 -83.2083 56° Northeast 259 298 5,900  Level Cleveland Center
Fri 06:26:00 PM 42.2167 -82.7956 90° East  Level FlightAware Approximate
Fri 06:26:23 PM 42.2653 -83.1253 123° Southeast 285 328 8,600  Level Cleveland Center
Fri 06:27:00 PM 42.2167 -82.6558 90° East  Level FlightAware Approximate
Fri 06:27:32 PM 42.2136 -83.0167 123° Southeast 319 367 10,400  Level Cleveland Center
Fri 06:28:00 PM 42.2167 -82.5160 90° East  Level FlightAware Approximate
Fri 06:28:32 PM 42.2158 -82.8961 89° East 296 341 12,500  Level Cleveland Center
Fri 06:29:33 PM 42.2186 -82.7672 88° East 318 366 15,000 2,529 Climbing Cleveland Center
Fri 06:30:33 PM 42.2208 -82.6328 89° East 336 387 17,600 2,269 Climbing Cleveland Center
Fri 06:31:32 PM 42.2233 -82.4953 89° East 355 409 19,500 1,714 Climbing Cleveland Center
Fri 06:32:32 PM 42.2172 -82.3522 93° East 368 423 21,000 744 Climbing Cleveland Center
Fri 06:33:33 PM 42.2069 -82.2061 95° East 387 445 21,000 200 Level Cleveland Center
Fri 06:34:32 PM 42.1964 -82.0603 96° East 387 445 21,400 1,109 Climbing Cleveland Center
Fri 06:35:32 PM 42.1689 -81.9167 104° East 387 445 23,200 1,800 Climbing Cleveland Center
Fri 06:36:32 PM 42.0847 -81.8142 138° Southeast 382 440 25,000 1,750 Climbing Cleveland Center
Fri 06:37:32 PM 41.9981 -81.7175 140° Southeast 399 459 26,700 1,550 Climbing Cleveland Center
Fri 06:38:32 PM 41.9094 -81.6128 139° Southeast 415 478 28,100 1,300 Climbing Cleveland Center
Fri 06:39:32 PM 41.8186 -81.5108 140° Southeast 430 495 29,300 1,200 Climbing Cleveland Center
Fri 06:40:32 PM 41.7278 -81.4039 139° Southeast 430 495 30,500 1,190 Climbing Cleveland Center
Fri 06:41:33 PM 41.6367 -81.2972 139° Southeast 430 495 31,700 950 Climbing Cleveland Center
Fri 06:42:32 PM 41.5517 -81.2019 140° Southeast 435 501 32,400 655 Climbing Cleveland Center
Fri 06:43:32 PM 41.4606 -81.0875 137° Southeast 446 513 33,000 300 Climbing Cleveland Center
Fri 06:44:32 PM 41.3756 -80.9678 133° Southeast 446 513 33,000  Level Cleveland Center
Fri 06:45:32 PM 41.2883 -80.8456 134° Southeast 451 519 33,000  Level Cleveland Center
Fri 06:46:32 PM 41.1947 -80.7183 134° Southeast 451 519 33,000  Level Cleveland Center
Fri 06:47:32 PM 41.1178 -80.6081 133° Southeast 451 519 33,000  Level Cleveland Center
Fri 06:48:32 PM 41.0303 -80.4894 134° Southeast 446 513 33,000  Level Cleveland Center
Fri 06:49:32 PM 40.9425 -80.3686 134° Southeast 446 513 33,000  Level Cleveland Center
Fri 06:50:32 PM 40.8547 -80.2536 135° Southeast 451 519 33,000  Level Cleveland Center
Fri 06:51:32 PM 40.7833 -80.0950 121° Southeast 451 519 33,000  Level Cleveland Center
Fri 06:52:32 PM 40.7325 -79.9583 116° Southeast 457 526 33,000  Level Cleveland Center
Fri 06:53:32 PM 40.6794 -79.8083 115° Southeast 452 520 33,000  Level Cleveland Center
Fri 06:54:32 PM 40.6242 -79.6558 115° Southeast 452 520 33,000  Level Cleveland Center
Fri 06:55:33 PM 40.5686 -79.5061 116° Southeast 447 514 33,000  Level Cleveland Center
Fri 06:56:32 PM 40.5131 -79.3569 116° Southeast 447 514 33,000  Level Cleveland Center
Fri 06:57:32 PM 40.4733 -79.1831 107° East 447 514 33,000  Level Cleveland Center
Fri 06:58:32 PM 40.4544 -79.0142 98° East 447 514 33,000  Level Cleveland Center
Fri 06:59:32 PM 40.4314 -78.8511 100° East 453 521 33,000  Level Cleveland Center
Fri 07:00:32 PM 40.4119 -78.6853 99° East 453 521 33,000 -723 Level Cleveland Center
Fri 07:02:18 PM 40.3714 -78.4000 100° East 464 534 31,000 -1,554 Descending New York Center
Fri 07:03:18 PM 40.3486 -78.2367 100° East 458 527 28,700 -2,331 Descending New York Center
Fri 07:04:19 PM 40.3275 -78.0736 100° East 452 520 26,300 -1,820 Descending New York Center
Fri 07:05:20 PM 40.3100 -77.9164 98° East 447 514 25,000 -661 Descending New York Center
Fri 07:06:17 PM 40.3008 -77.7578 94° East 442 509 25,000 -923 Level New York Center
Fri 07:07:17 PM 40.2847 -77.6036 98° East 442 509 23,200 -1,983 Descending New York Center
Fri 07:08:18 PM 40.2675 -77.4686 99° East 419 482 21,000 -2,083 Descending New York Center
Fri 07:09:18 PM 40.2469 -77.3142 100° East 397 457 19,000 -1,488 Descending New York Center
Fri 07:10:19 PM 40.2328 -77.1906 98° East 392 451 18,000 -496 Descending New York Center
Fri 07:11:19 PM 40.2139 -77.0392 99° East 387 445 18,000  Level New York Center
Fri 07:12:18 PM 40.1975 -76.9128 100° East 387 445 18,000 -496 Level New York Center
Fri 07:13:20 PM 40.1814 -76.7781 99° East 387 445 17,000 -1,059 Descending New York Center
Fri 07:14:17 PM 40.1631 -76.6461 100° East 376 433 15,900 -1,220 Descending New York Center
Fri 07:15:18 PM 40.1475 -76.4953 98° East 376 433 14,600 -1,388 Descending New York Center
Fri 07:16:18 PM 40.1311 -76.3636 99° East 370 426 13,100 -744 Descending New York Center
Fri 07:17:19 PM 40.1161 -76.2347 99° East 370 426 13,100 -793 Level New York Center
Fri 07:18:19 PM 40.1053 -76.1119 97° East 370 426 11,500 -1,500 Descending New York Center
Fri 07:19:19 PM 40.0964 -75.9783 95° East 354 407 10,100 -1,563 Descending New York Center
Fri 07:20:18 PM 40.0906 -75.8772 94° East 325 374 8,400 -1,000 Descending New York Center
Fri 07:21:19 PM 40.0853 -75.7550 93° East 313 360 8,100 -202 Descending New York Center
Fri 07:22:17 PM 40.1181 -75.6675 64° Northeast 292 336 8,000  Descending New York Center
Fri 07:23:17 PM 40.1597 -75.5672 61° Northeast 281 323 8,100 50 Climbing New York Center
Fri 07:24:18 PM 40.1697 -75.4756 82° East 276 318 8,100  Level New York Center
Fri 07:25:19 PM 40.1700 -75.3617 90° East 276 318 8,100 -303 Level New York Center
Fri 07:26:17 PM 40.1697 -75.2664 90° East 269 310 7,500 -508 Descending New York Center
Fri 07:27:17 PM 40.1431 -75.1969 117° Southeast 229 264 7,100 -595 Descending New York Center
Fri 07:28:18 PM 40.0739 -75.2033 184° South 200 230 6,300 -623 Descending New York Center
Fri 07:29:03 PM 40.0333 -75.2000 176° South 239 275 6,000 -171 Descending Philadelphia TRACON
Fri 07:30:03 PM 39.9833 -75.1500 143° Southeast 234 269 6,000  Level Philadelphia TRACON
Fri 07:31:03 PM 40.0000 -75.0667 75° East 218 251 6,000  Level Philadelphia TRACON
Fri 07:32:03 PM 40.0167 -75.0000 72° East 215 247 6,000 -400 Level Philadelphia TRACON
Fri 07:33:03 PM 40.0167 -74.9167 90° East 214 246 5,200 -950 Descending Philadelphia TRACON
Fri 07:34:03 PM 39.9833 -74.9167 180° South 203 234 4,100 -600 Descending Philadelphia TRACON
Fri 07:35:03 PM 39.9333 -74.9500 207° Southwest 180 207 4,000 -397 Descending Philadelphia TRACON
Fri 07:36:04 PM 39.9167 -75.0167 252° West 182 209 3,300 -689 Descending Philadelphia TRACON

Login

Don't have an account? Register now (free) for customized features, flight alerts, and more!